Time;durP1;ratioP1;P1;durP2;ratioP2;P2;SDS_P1;SDS_P2;PMS_P1;PMS_P2;Temp;Humidity;BMP_temperature;BMP_pressure;BME280_temperature;BME280_humidity;BME280_pressure;Samples;Min_cycle;Max_cycle;Signal;HPM_P1;HPM_P2
2023/12/17 00:00:22;;;;;;;14.57;5.53;;;9.60;99.90;;;;;;4935300;29;20052;-90
2023/12/17 00:02:49;;;;;;;10.45;5.10;;;9.60;99.90;;;;;;4922308;29;20051;-89
2023/12/17 00:05:16;;;;;;;11.88;4.80;;;9.70;99.90;;;;;;4950673;29;20056;-89
2023/12/17 00:07:43;;;;;;;15.05;5.30;;;9.50;99.90;;;;;;4960258;29;20405;-89
2023/12/17 00:10:09;;;;;;;13.10;4.65;;;9.60;99.90;;;;;;4956324;29;20047;-89
2023/12/17 00:12:36;;;;;;;10.05;4.93;;;9.80;99.90;;;;;;4972777;29;20052;-90
2023/12/17 00:15:03;;;;;;;11.48;5.10;;;9.50;99.90;;;;;;4956661;29;20043;-89
2023/12/17 00:17:29;;;;;;;8.02;4.63;;;9.50;99.90;;;;;;4957099;29;20044;-90
2023/12/17 00:19:56;;;;;;;11.43;4.88;;;9.50;99.90;;;;;;4957148;29;20043;-90
2023/12/17 00:22:22;;;;;;;11.68;4.72;;;9.50;99.90;;;;;;4954876;29;20043;-89
2023/12/17 00:24:49;;;;;;;14.55;4.63;;;9.50;99.90;;;;;;4957046;29;20497;-89
2023/12/17 00:27:16;;;;;;;11.25;5.18;;;9.90;99.90;;;;;;4944042;29;20108;-89
2023/12/17 00:29:42;;;;;;;12.70;4.35;;;9.70;99.90;;;;;;4951198;29;20054;-90
2023/12/17 00:32:09;;;;;;;10.70;4.60;;;9.50;99.90;;;;;;4956621;29;20039;-90
2023/12/17 00:34:36;;;;;;;12.90;4.60;;;9.50;99.90;;;;;;4956497;29;20078;-90
2023/12/17 00:37:02;;;;;;;9.60;4.63;;;9.50;99.90;;;;;;4956481;29;20044;-89
2023/12/17 00:39:29;;;;;;;11.18;4.45;;;9.50;99.90;;;;;;4943813;29;20028;-90
2023/12/17 00:41:55;;;;;;;10.73;4.65;;;10.10;99.90;;;;;;4956202;29;20067;-90
2023/12/17 00:44:22;;;;;;;11.98;4.68;;;9.80;99.90;;;;;;4951903;29;20128;-90
2023/12/17 00:46:49;;;;;;;12.18;4.55;;;9.50;99.90;;;;;;4950180;29;20047;-90
2023/12/17 00:49:15;;;;;;;9.48;4.28;;;9.90;99.90;;;;;;4949029;29;20040;-89
2023/12/17 00:51:42;;;;;;;9.45;4.40;;;9.60;99.90;;;;;;4953740;29;20050;-90
2023/12/17 00:54:08;;;;;;;14.68;4.75;;;9.70;99.90;;;;;;4972204;29;20058;-90
2023/12/17 00:56:35;;;;;;;12.68;5.15;;;9.50;99.90;;;;;;4955582;29;20052;-90
2023/12/17 00:59:02;;;;;;;14.30;4.07;;;9.60;99.90;;;;;;4950783;29;20534;-90
2023/12/17 01:01:28;;;;;;;10.38;4.47;;;9.60;99.90;;;;;;4961707;29;20143;-90
2023/12/17 01:03:55;;;;;;;9.63;4.35;;;9.60;99.90;;;;;;4963719;29;20087;-90
2023/12/17 01:06:21;;;;;;;8.98;4.10;;;10.10;99.90;;;;;;4937518;29;20103;-90
2023/12/17 01:08:48;;;;;;;10.45;4.38;;;9.60;99.90;;;;;;4931153;29;20043;-90
2023/12/17 01:11:15;;;;;;;9.85;4.43;;;10.30;99.90;;;;;;4940744;29;20048;-90
2023/12/17 01:13:41;;;;;;;10.73;4.30;;;9.60;99.90;;;;;;4936416;29;20054;-89
2023/12/17 01:16:08;;;;;;;12.50;4.32;;;9.60;99.90;;;;;;4941306;29;20044;-89
2023/12/17 01:18:35;;;;;;;13.27;4.68;;;9.90;99.90;;;;;;4927473;29;20063;-90
2023/12/17 01:21:01;;;;;;;12.18;4.60;;;10.20;99.90;;;;;;4936816;29;20044;-90
2023/12/17 01:23:28;;;;;;;10.85;4.45;;;9.60;99.90;;;;;;4940687;29;20065;-89
2023/12/17 01:25:54;;;;;;;9.02;4.45;;;9.60;99.90;;;;;;4954740;29;20118;-89
2023/12/17 01:28:21;;;;;;;12.40;4.47;;;9.60;99.90;;;;;;4953718;29;20047;-90
2023/12/17 01:30:48;;;;;;;10.45;4.40;;;9.50;99.90;;;;;;4939530;29;20099;-90
2023/12/17 01:33:14;;;;;;;8.73;4.20;;;9.60;99.90;;;;;;4966287;29;20126;-89
2023/12/17 01:35:41;;;;;;;9.77;4.40;;;9.70;99.90;;;;;;4939032;29;20420;-89
2023/12/17 01:38:07;;;;;;;10.43;4.20;;;9.80;99.90;;;;;;4955551;29;20031;-90
2023/12/17 01:40:34;;;;;;;8.18;4.32;;;9.60;99.90;;;;;;4949511;29;20040;-89
2023/12/17 01:43:03;;;;;;;7.82;4.22;;;9.70;99.90;;;;;;4939505;29;20031;-89
2023/12/17 01:45:30;;;;;;;9.73;4.10;;;9.60;99.90;;;;;;4940038;29;20032;-90
2023/12/17 01:47:56;;;;;;;9.07;4.10;;;9.70;99.90;;;;;;4927172;29;20123;-89
2023/12/17 01:50:24;;;;;;;11.30;4.25;;;9.60;99.90;;;;;;4929769;29;20031;-90
2023/12/17 01:52:51;;;;;;;10.18;4.05;;;9.70;99.90;;;;;;4944427;29;20048;-89
2023/12/17 01:55:18;;;;;;;8.75;4.07;;;9.60;99.90;;;;;;4940105;29;20047;-89
2023/12/17 01:57:45;;;;;;;13.20;4.63;;;9.90;99.90;;;;;;4929091;29;20051;-90
2023/12/17 02:00:13;;;;;;;10.27;3.80;;;9.60;99.90;;;;;;4938580;29;20044;-91
2023/12/17 02:02:39;;;;;;;9.50;3.97;;;9.60;99.90;;;;;;4937124;29;20048;-89
2023/12/17 02:05:07;;;;;;;12.55;3.83;;;9.70;99.90;;;;;;4943873;29;20058;-90
2023/12/17 02:07:33;;;;;;;7.90;4.03;;;9.60;99.90;;;;;;4956344;29;20515;-90
2023/12/17 02:10:00;;;;;;;8.60;4.20;;;9.70;99.90;;;;;;4984759;29;20039;-90
2023/12/17 02:12:28;;;;;;;8.43;3.95;;;9.60;99.90;;;;;;4943447;29;20098;-90
2023/12/17 02:14:54;;;;;;;8.68;3.90;;;10.50;99.90;;;;;;4951441;29;20050;-90
2023/12/17 02:17:26;;;;;;;11.95;4.32;;;9.60;99.90;;;;;;4971494;29;20123;-89
2023/12/17 02:19:53;;;;;;;11.40;4.60;;;9.60;99.90;;;;;;4944105;29;20040;-90
2023/12/17 02:22:22;;;;;;;10.35;4.10;;;10.00;99.90;;;;;;4966936;29;20424;-90
2023/12/17 02:24:53;;;;;;;9.02;4.07;;;9.60;99.90;;;;;;4948947;29;20485;-89
2023/12/17 02:27:21;;;;;;;11.90;4.10;;;9.60;99.90;;;;;;4943239;29;20066;-89
2023/12/17 02:29:52;;;;;;;11.77;4.68;;;9.70;99.90;;;;;;4942814;29;20178;-90
2023/12/17 02:32:23;;;;;;;11.82;4.72;;;9.70;99.90;;;;;;4953934;29;20036;-89
2023/12/17 02:34:51;;;;;;;11.18;4.07;;;9.60;99.90;;;;;;4971470;29;20043;-89
2023/12/17 02:37:18;;;;;;;10.05;4.53;;;9.60;99.90;;;;;;4955825;29;20531;-89
2023/12/17 02:39:45;;;;;;;12.00;4.40;;;9.70;99.90;;;;;;4955066;29;20051;-89
2023/12/17 02:42:12;;;;;;;8.05;4.20;;;9.60;99.90;;;;;;4945729;29;20482;-90
2023/12/17 02:44:38;;;;;;;9.85;4.10;;;9.60;99.90;;;;;;4936692;29;20040;-89
2023/12/17 02:47:05;;;;;;;8.15;4.38;;;9.60;99.90;;;;;;4946988;29;20107;-90
2023/12/17 02:49:33;;;;;;;13.15;4.05;;;9.60;99.90;;;;;;4947030;29;20040;-89
2023/12/17 02:52:00;;;;;;;9.07;4.25;;;9.80;99.90;;;;;;4954157;29;20039;-90
2023/12/17 02:54:27;;;;;;;10.57;4.43;;;10.30;99.90;;;;;;4975048;29;20107;-90
2023/12/17 02:56:54;;;;;;;10.25;4.32;;;9.60;99.90;;;;;;4953659;29;20078;-90
2023/12/17 02:59:21;;;;;;;9.95;4.30;;;9.60;99.90;;;;;;4959025;29;20061;-89
2023/12/17 03:01:47;;;;;;;8.50;3.85;;;9.60;99.90;;;;;;4959005;29;20039;-90
2023/12/17 03:04:14;;;;;;;9.50;4.00;;;9.60;99.90;;;;;;4958986;29;20052;-90
2023/12/17 03:06:40;;;;;;;7.45;3.83;;;10.00;99.90;;;;;;4955215;29;20051;-90
2023/12/17 03:09:07;;;;;;;9.02;4.20;;;10.00;99.90;;;;;;4959611;29;20058;-90
2023/12/17 03:11:34;;;;;;;11.40;3.88;;;9.60;99.90;;;;;;4933392;29;20047;-90
2023/12/17 03:14:01;;;;;;;9.80;3.85;;;10.10;99.90;;;;;;4947868;29;20044;-89
2023/12/17 03:16:28;;;;;;;9.05;3.78;;;9.60;99.90;;;;;;4932742;29;20416;-89
2023/12/17 03:18:55;;;;;;;18.60;4.75;;;9.60;99.90;;;;;;4943171;29;20067;-91
2023/12/17 03:21:26;;;;;;;9.63;4.05;;;9.60;99.90;;;;;;4954116;29;20066;-89
2023/12/17 03:23:54;;;;;;;12.38;4.55;;;9.60;99.90;;;;;;4942859;29;20123;-90
2023/12/17 03:26:21;;;;;;;10.68;4.00;;;10.00;99.90;;;;;;4950038;29;20044;-90
2023/12/17 03:28:47;;;;;;;11.43;4.15;;;9.60;99.90;;;;;;4943813;29;20050;-90
2023/12/17 03:31:15;;;;;;;14.30;4.40;;;9.60;99.90;;;;;;4959304;29;20082;-91
2023/12/17 03:33:43;;;;;;;10.35;3.60;;;9.60;99.90;;;;;;4946027;29;20051;-90
2023/12/17 03:36:14;;;;;;;9.45;4.00;;;9.70;99.90;;;;;;4943116;29;20047;-90
2023/12/17 03:38:43;;;;;;;9.18;3.88;;;9.90;99.90;;;;;;4942775;29;20039;-90
2023/12/17 03:41:25;;;;;;;9.80;3.90;;;9.60;99.90;;;;;;4948788;29;20040;-90
2023/12/17 03:43:54;;;;;;;12.77;3.92;;;9.60;99.90;;;;;;4945479;29;20234;-90
2023/12/17 03:46:21;;;;;;;13.88;4.57;;;9.60;99.90;;;;;;4943939;29;20140;-90
2023/12/17 03:48:49;;;;;;;10.45;3.70;;;9.60;99.90;;;;;;4949272;29;20040;-89
2023/12/17 03:51:16;;;;;;;11.43;4.50;;;9.80;99.90;;;;;;4941528;29;20046;-90
2023/12/17 03:53:43;;;;;;;12.65;4.07;;;10.40;99.90;;;;;;4941492;29;20047;-89
2023/12/17 03:56:11;;;;;;;11.38;3.90;;;9.60;99.90;;;;;;4947168;29;20327;-90
2023/12/17 03:58:39;;;;;;;13.27;3.85;;;9.60;99.90;;;;;;4930424;29;20036;-90
2023/12/17 04:01:07;;;;;;;11.35;4.03;;;9.60;99.90;;;;;;4942099;29;20039;-90
2023/12/17 04:03:33;;;;;;;10.82;4.75;;;9.70;99.90;;;;;;4955941;29;20046;-89
2023/12/17 04:06:02;;;;;;;10.68;3.90;;;9.60;99.90;;;;;;4946840;29;20962;-86
2023/12/17 04:08:29;;;;;;;9.95;3.90;;;9.60;99.90;;;;;;4943274;29;20074;-86
2023/12/17 04:10:56;;;;;;;11.57;4.53;;;9.60;99.90;;;;;;4930685;29;20126;-86
2023/12/17 04:13:22;;;;;;;12.55;4.03;;;9.30;99.90;;;;;;4928595;29;20047;-86
2023/12/17 04:15:49;;;;;;;15.30;4.78;;;10.10;99.90;;;;;;4938650;29;20044;-86
2023/12/17 04:18:15;;;;;;;11.20;4.75;;;9.60;99.90;;;;;;4944003;29;20143;-87
2023/12/17 04:20:42;;;;;;;12.27;4.40;;;9.70;99.90;;;;;;4938234;29;20048;-86
2023/12/17 04:23:09;;;;;;;10.32;4.65;;;9.70;99.90;;;;;;4940331;29;20039;-86
2023/12/17 04:25:35;;;;;;;10.23;4.25;;;9.80;99.90;;;;;;4939284;29;20130;-86
2023/12/17 04:28:03;;;;;;;13.20;4.25;;;9.60;99.90;;;;;;4939145;29;20043;-86
2023/12/17 04:30:30;;;;;;;14.25;4.22;;;9.70;99.90;;;;;;4939329;29;20126;-86
2023/12/17 04:32:56;;;;;;;11.15;4.15;;;9.60;99.90;;;;;;4932372;29;20099;-85
2023/12/17 04:35:23;;;;;;;8.52;3.67;;;9.70;99.90;;;;;;4932040;29;20122;-86
2023/12/17 04:37:50;;;;;;;16.63;4.20;;;9.60;99.90;;;;;;4939038;29;20040;-86
2023/12/17 04:40:16;;;;;;;9.85;4.13;;;10.30;99.90;;;;;;4945314;29;20035;-86
2023/12/17 04:42:43;;;;;;;12.27;4.38;;;9.60;99.90;;;;;;4943619;29;20039;-85
2023/12/17 04:45:10;;;;;;;11.30;4.03;;;9.60;99.90;;;;;;4939255;29;20035;-87
2023/12/17 04:47:36;;;;;;;10.85;4.65;;;9.70;99.90;;;;;;4938823;29;20111;-86
2023/12/17 04:50:04;;;;;;;7.20;4.20;;;9.60;99.90;;;;;;4926548;29;20044;-87
2023/12/17 04:52:31;;;;;;;10.13;4.47;;;9.60;99.90;;;;;;4940829;29;20557;-90
2023/12/17 04:54:58;;;;;;;11.93;4.43;;;9.60;99.90;;;;;;4942077;29;20074;-90
2023/12/17 04:57:24;;;;;;;11.48;4.70;;;9.70;99.90;;;;;;4947914;29;20087;-90
2023/12/17 04:59:51;;;;;;;11.13;4.45;;;9.70;99.90;;;;;;4932020;29;20044;-90
2023/12/17 05:02:17;;;;;;;10.20;4.15;;;9.60;99.90;;;;;;4938361;29;20409;-86
2023/12/17 05:04:44;;;;;;;9.20;4.43;;;9.70;99.90;;;;;;4933532;29;20048;-86
2023/12/17 05:07:11;;;;;;;7.82;4.30;;;9.60;99.90;;;;;;4940050;29;20440;-86
2023/12/17 05:09:37;;;;;;;8.65;4.30;;;10.00;99.90;;;;;;4919617;29;20044;-87
2023/12/17 05:12:04;;;;;;;8.35;3.97;;;9.60;99.90;;;;;;4931886;29;20047;-86
2023/12/17 05:14:31;;;;;;;11.23;4.47;;;9.60;99.90;;;;;;4939341;29;20119;-87
2023/12/17 05:16:58;;;;;;;10.48;3.92;;;9.60;99.90;;;;;;4941109;29;20573;-86
2023/12/17 05:19:24;;;;;;;12.88;4.72;;;9.60;99.90;;;;;;4938603;29;20043;-86
2023/12/17 05:21:51;;;;;;;8.32;4.45;;;10.00;99.90;;;;;;4930030;29;20062;-86
2023/12/17 05:24:17;;;;;;;11.43;4.60;;;9.60;99.90;;;;;;4927456;29;20095;-86
2023/12/17 05:26:44;;;;;;;9.50;4.28;;;9.60;99.90;;;;;;4936918;29;20497;-86
2023/12/17 05:29:11;;;;;;;10.75;4.80;;;9.60;99.90;;;;;;4927028;29;20044;-86
2023/12/17 05:31:37;;;;;;;10.48;4.63;;;9.60;99.90;;;;;;4924372;29;20044;-86
2023/12/17 05:34:08;;;;;;;10.65;4.85;;;9.50;99.90;;;;;;4926355;29;20051;-86
2023/12/17 05:36:35;;;;;;;9.82;4.47;;;9.60;99.90;;;;;;4920008;29;20072;-86
2023/12/17 05:39:02;;;;;;;16.00;5.18;;;9.50;99.90;;;;;;4932007;29;20039;-86
2023/12/17 05:41:29;;;;;;;12.95;5.15;;;9.60;99.90;;;;;;4950761;29;20043;-86
2023/12/17 05:43:56;;;;;;;10.63;4.55;;;10.00;99.90;;;;;;4952885;29;20416;-86
2023/12/17 05:46:23;;;;;;;12.25;4.90;;;9.50;99.90;;;;;;4940924;29;20123;-86
2023/12/17 05:48:50;;;;;;;12.52;4.68;;;9.50;99.90;;;;;;4934041;29;20040;-86
2023/12/17 05:51:16;;;;;;;13.68;5.32;;;9.90;99.90;;;;;;4955719;29;20105;-86
2023/12/17 05:53:43;;;;;;;10.93;5.20;;;9.90;99.90;;;;;;4950279;29;20154;-85
2023/12/17 05:56:10;;;;;;;10.32;5.47;;;9.50;99.90;;;;;;4940183;29;20416;-86
2023/12/17 05:58:37;;;;;;;12.32;5.70;;;9.50;99.90;;;;;;4932958;29;20068;-86
2023/12/17 06:01:04;;;;;;;10.57;5.15;;;9.60;99.90;;;;;;4918632;29;20482;-86
2023/12/17 06:03:30;;;;;;;10.32;5.25;;;9.50;99.90;;;;;;4921165;29;20036;-86
2023/12/17 06:05:57;;;;;;;11.52;5.90;;;9.40;99.90;;;;;;4943545;29;20055;-87
2023/12/17 06:08:24;;;;;;;11.57;5.38;;;9.50;99.90;;;;;;4937318;29;20051;-86
2023/12/17 06:10:50;;;;;;;10.13;5.03;;;9.40;99.90;;;;;;4934565;29;20098;-86
2023/12/17 06:13:17;;;;;;;11.10;4.80;;;9.40;99.90;;;;;;4937535;29;20048;-87
2023/12/17 06:15:44;;;;;;;15.80;4.60;;;9.70;99.90;;;;;;4937914;29;20050;-86
2023/12/17 06:18:10;;;;;;;11.07;5.20;;;9.40;99.90;;;;;;4930708;29;20037;-86
2023/12/17 06:20:37;;;;;;;10.35;4.68;;;9.80;99.90;;;;;;4948766;29;20048;-87
2023/12/17 06:23:04;;;;;;;9.00;4.25;;;9.40;99.90;;;;;;4937695;29;20035;-87
2023/12/17 06:25:31;;;;;;;9.75;4.40;;;9.40;99.90;;;;;;4940951;29;20035;-86
2023/12/17 06:27:57;;;;;;;9.50;4.25;;;9.40;99.90;;;;;;4957352;29;20103;-85
2023/12/17 06:30:24;;;;;;;13.30;4.38;;;9.60;99.90;;;;;;4943535;29;20040;-90
2023/12/17 06:32:51;;;;;;;7.65;3.97;;;9.30;99.90;;;;;;4950322;29;20523;-89
2023/12/17 06:35:17;;;;;;;10.13;4.47;;;9.30;99.90;;;;;;4960389;29;20084;-90
2023/12/17 06:37:44;;;;;;;13.30;5.05;;;9.30;99.90;;;;;;4949764;29;20071;-89
2023/12/17 06:40:11;;;;;;;11.73;4.68;;;9.30;99.90;;;;;;4943792;29;20074;-89
2023/12/17 06:42:37;;;;;;;9.57;4.45;;;9.30;99.90;;;;;;4959226;29;20086;-90
2023/12/17 06:45:04;;;;;;;9.85;4.47;;;9.40;99.90;;;;;;4952052;29;20048;-90
2023/12/17 06:47:31;;;;;;;9.80;4.25;;;9.20;99.90;;;;;;4937425;29;20508;-90
2023/12/17 06:49:58;;;;;;;9.50;4.55;;;9.80;99.90;;;;;;4944142;29;20052;-90
2023/12/17 06:52:24;;;;;;;11.55;4.15;;;9.20;99.90;;;;;;4938265;29;20048;-91
2023/12/17 06:54:51;;;;;;;10.93;4.50;;;9.20;99.90;;;;;;4949529;29;20412;-91
2023/12/17 06:57:18;;;;;;;11.73;4.57;;;9.20;99.90;;;;;;4935202;29;20044;-89
2023/12/17 06:59:45;;;;;;;9.00;3.97;;;9.20;99.90;;;;;;4931808;29;20042;-91
2023/12/17 07:02:11;;;;;;;9.73;3.50;;;9.40;99.90;;;;;;4943708;29;20134;-90
2023/12/17 07:04:38;;;;;;;10.50;3.92;;;9.10;99.90;;;;;;4958668;29;20046;-90
2023/12/17 07:07:05;;;;;;;13.10;3.95;;;9.10;99.90;;;;;;4938476;29;20047;-91
2023/12/17 07:09:31;;;;;;;13.15;3.92;;;9.10;99.90;;;;;;4929059;29;20096;-91
2023/12/17 07:11:58;;;;;;;10.98;3.78;;;9.30;99.90;;;;;;4942724;29;20048;-90
2023/12/17 07:14:25;;;;;;;8.93;3.03;;;9.10;99.90;;;;;;4943462;29;20043;-91
2023/12/17 07:16:51;;;;;;;7.55;3.08;;;9.10;99.90;;;;;;4945897;29;20039;-90
2023/12/17 07:19:18;;;;;;;11.35;3.03;;;9.50;99.90;;;;;;4943239;29;20569;-90
2023/12/17 07:21:45;;;;;;;10.80;3.70;;;9.60;99.90;;;;;;4943333;29;20040;-90
2023/12/17 07:24:11;;;;;;;9.05;3.05;;;9.10;99.90;;;;;;4943529;29;20042;-90
2023/12/17 07:26:38;;;;;;;7.10;3.10;;;9.10;99.90;;;;;;4945137;29;20048;-90
2023/12/17 07:29:05;;;;;;;8.10;3.67;;;9.10;99.90;;;;;;4945988;29;20099;-91
2023/12/17 07:31:31;;;;;;;7.05;2.83;;;9.90;99.90;;;;;;4950880;29;20040;-91
2023/12/17 07:33:59;;;;;;;8.43;3.47;;;9.10;99.90;;;;;;4945136;29;20054;-91
2023/12/17 07:36:26;;;;;;;10.15;3.63;;;9.10;99.90;;;;;;4937792;29;20486;-86
2023/12/17 07:38:52;;;;;;;10.60;3.72;;;9.10;99.90;;;;;;4943141;29;20040;-89
2023/12/17 07:41:19;;;;;;;10.38;4.00;;;9.30;99.90;;;;;;4932029;29;20048;-91
2023/12/17 07:43:45;;;;;;;11.85;4.50;;;9.80;99.90;;;;;;4923117;29;20040;-90
2023/12/17 07:46:12;;;;;;;11.20;5.30;;;9.10;99.90;;;;;;4949047;29;20047;-89
2023/12/17 07:48:39;;;;;;;12.73;4.45;;;9.10;99.90;;;;;;4928416;29;20051;-91
2023/12/17 07:51:05;;;;;;;11.60;5.03;;;9.20;99.90;;;;;;4923635;29;20292;-91
2023/12/17 07:53:32;;;;;;;12.40;5.07;;;9.20;99.90;;;;;;4941724;29;20043;-90
2023/12/17 07:55:59;;;;;;;10.32;4.60;;;9.60;99.90;;;;;;4927406;29;20044;-90
2023/12/17 07:58:28;;;;;;;11.48;4.78;;;9.10;99.90;;;;;;4927942;29;20040;-92
2023/12/17 08:00:55;;;;;;;11.65;4.50;;;9.20;99.90;;;;;;4934142;29;20040;-89
2023/12/17 08:03:23;;;;;;;9.80;5.07;;;9.20;99.90;;;;;;4930649;29;20449;-90
2023/12/17 08:05:52;;;;;;;8.57;4.82;;;9.70;99.90;;;;;;4946391;29;20059;-91
2023/12/17 08:08:19;;;;;;;9.77;4.93;;;9.20;99.90;;;;;;4963085;29;20040;-91
2023/12/17 08:10:46;;;;;;;12.00;5.90;;;9.20;99.90;;;;;;4948763;29;20040;-91
2023/12/17 08:13:14;;;;;;;15.02;8.95;;;9.20;99.90;;;;;;4946802;29;20044;-91
2023/12/17 08:15:40;;;;;;;12.03;5.47;;;9.10;99.90;;;;;;4948793;29;20465;-91
2023/12/17 08:18:07;;;;;;;14.13;6.43;;;9.10;99.90;;;;;;4952457;29;20127;-92
2023/12/17 08:20:34;;;;;;;14.05;5.00;;;9.60;99.90;;;;;;4945815;29;20052;-89
2023/12/17 08:23:00;;;;;;;12.45;5.55;;;9.30;99.90;;;;;;4950923;29;20453;-90
2023/12/17 08:25:27;;;;;;;16.40;6.30;;;9.90;99.90;;;;;;4952622;29;20043;-90
2023/12/17 08:27:54;;;;;;;19.13;7.53;;;9.10;99.90;;;;;;4952926;29;20048;-92
2023/12/17 08:30:20;;;;;;;13.98;7.75;;;9.30;99.90;;;;;;4949749;29;20043;-91
2023/12/17 08:32:47;;;;;;;13.80;6.43;;;9.10;99.90;;;;;;4972580;29;20043;-90
2023/12/17 08:35:14;;;;;;;14.52;6.70;;;9.10;99.90;;;;;;4957864;29;20040;-91
2023/12/17 08:37:41;;;;;;;10.05;6.68;;;9.70;99.90;;;;;;4953303;29;20119;-91
2023/12/17 08:40:08;;;;;;;12.73;6.20;;;9.10;99.90;;;;;;4944268;29;20067;-90
2023/12/17 08:42:34;;;;;;;13.18;6.40;;;9.10;99.90;;;;;;4960543;29;20075;-91
2023/12/17 08:45:01;;;;;;;11.50;6.00;;;9.10;99.90;;;;;;4963398;29;20032;-91
2023/12/17 08:47:28;;;;;;;12.80;6.28;;;9.10;99.90;;;;;;4955133;29;20122;-89
2023/12/17 08:49:56;;;;;;;13.52;7.05;;;9.30;99.90;;;;;;4938729;29;20457;-90
2023/12/17 08:52:23;;;;;;;12.73;6.45;;;9.20;99.90;;;;;;4937368;29;20408;-92
2023/12/17 08:54:49;;;;;;;16.40;6.65;;;9.20;99.90;;;;;;4955141;29;20048;-92
2023/12/17 08:57:17;;;;;;;15.35;6.38;;;9.60;99.90;;;;;;4965259;29;20044;-92
2023/12/17 08:59:44;;;;;;;10.57;6.55;;;9.20;99.90;;;;;;4949140;29;20036;-92
2023/12/17 09:02:10;;;;;;;16.50;7.07;;;9.20;99.90;;;;;;4948662;29;20044;-91
2023/12/17 09:04:37;;;;;;;12.38;6.75;;;9.80;99.90;;;;;;4954013;29;20040;-90
2023/12/17 09:07:04;;;;;;;13.13;6.32;;;9.20;99.90;;;;;;4948549;29;20059;-90
2023/12/17 09:09:30;;;;;;;14.25;7.30;;;9.20;99.90;;;;;;4937099;29;20572;-91
2023/12/17 09:11:57;;;;;;;13.80;6.85;;;9.20;99.90;;;;;;4929660;29;20086;-88
2023/12/17 09:14:24;;;;;;;13.85;6.15;;;9.40;99.90;;;;;;4941881;29;20036;-90
2023/12/17 09:16:50;;;;;;;16.90;6.50;;;9.30;99.90;;;;;;4926097;29;20497;-92
2023/12/17 09:19:17;;;;;;;18.77;6.53;;;9.40;99.90;;;;;;4939052;29;20051;-89
2023/12/17 09:21:44;;;;;;;16.45;6.47;;;9.30;99.90;;;;;;4941139;29;20059;-90
2023/12/17 09:24:10;;;;;;;16.80;6.53;;;9.90;99.90;;;;;;4936536;29;20043;-89
2023/12/17 09:26:37;;;;;;;13.82;6.82;;;9.30;99.90;;;;;;4933757;29;20043;-89
2023/12/17 09:29:03;;;;;;;15.73;6.28;;;9.30;99.90;;;;;;4948386;29;20047;-89
2023/12/17 09:31:30;;;;;;;18.10;6.72;;;9.30;99.90;;;;;;4936521;29;20043;-89
2023/12/17 09:33:57;;;;;;;14.57;6.68;;;9.30;99.90;;;;;;4945517;29;20039;-90
2023/12/17 09:36:25;;;;;;;15.07;6.78;;;9.30;99.90;;;;;;4945370;29;20047;-91
2023/12/17 09:38:51;;;;;;;16.88;7.78;;;9.30;99.90;;;;;;4940666;29;20090;-90
2023/12/17 09:41:19;;;;;;;16.55;7.22;;;9.30;99.90;;;;;;4944832;29;20040;-93
2023/12/17 09:43:46;;;;;;;11.05;7.18;;;9.30;99.90;;;;;;4956415;29;20046;-90
2023/12/17 09:46:13;;;;;;;15.82;6.60;;;9.40;99.90;;;;;;4939581;29;20047;-90
2023/12/17 09:48:40;;;;;;;13.98;6.78;;;9.40;99.90;;;;;;4930111;29;20051;-87
2023/12/17 09:51:07;;;;;;;15.95;6.97;;;9.40;99.90;;;;;;4939375;29;20413;-91
2023/12/17 09:53:35;;;;;;;18.88;7.40;;;9.40;99.90;;;;;;4937542;29;20571;-90
2023/12/17 09:56:01;;;;;;;15.55;7.50;;;9.50;99.90;;;;;;4938523;29;21935;-90
2023/12/17 09:58:28;;;;;;;15.18;7.47;;;9.40;99.90;;;;;;4930390;29;20096;-92
2023/12/17 10:00:55;;;;;;;15.85;7.53;;;9.50;99.90;;;;;;4961662;29;20408;-91
2023/12/17 10:03:21;;;;;;;17.23;7.43;;;9.40;99.90;;;;;;4939396;29;20043;-91
2023/12/17 10:05:54;;;;;;;18.38;7.47;;;9.90;99.90;;;;;;4948557;29;20111;-92
2023/12/17 10:08:22;;;;;;;19.58;7.93;;;9.50;99.90;;;;;;4953815;29;20038;-90
2023/12/17 10:10:49;;;;;;;15.73;8.30;;;9.50;99.90;;;;;;4952458;29;20040;-88
2023/12/17 10:13:20;;;;;;;16.42;8.05;;;9.50;99.90;;;;;;4962305;29;20070;-90
2023/12/17 10:15:48;;;;;;;21.30;10.05;;;9.50;99.90;;;;;;4955555;29;20047;-90
2023/12/17 10:18:16;;;;;;;18.98;8.40;;;9.50;99.90;;;;;;4952471;29;20031;-91
2023/12/17 10:20:47;;;;;;;21.63;8.98;;;9.50;99.90;;;;;;4961659;29;20047;-90
2023/12/17 10:23:14;;;;;;;18.30;8.93;;;9.70;99.90;;;;;;4975862;29;20393;-91
2023/12/17 10:25:41;;;;;;;24.52;8.90;;;9.60;99.90;;;;;;4947596;29;20028;-91
2023/12/17 10:28:12;;;;;;;19.45;9.00;;;9.50;99.90;;;;;;4956890;29;20044;-92
2023/12/17 10:30:43;;;;;;;16.70;9.07;;;9.60;99.90;;;;;;4956662;29;20039;-88
2023/12/17 10:33:20;;;;;;;17.90;8.88;;;9.60;99.90;;;;;;4955019;29;20071;-86
2023/12/17 10:35:49;;;;;;;19.42;9.30;;;9.60;99.90;;;;;;4952741;29;20436;-86
2023/12/17 10:38:18;;;;;;;18.70;9.50;;;9.60;99.90;;;;;;4950444;29;20032;-85
2023/12/17 10:40:45;;;;;;;17.40;9.60;;;9.60;99.90;;;;;;4953062;29;20118;-86
2023/12/17 10:43:14;;;;;;;20.73;10.30;;;9.60;99.90;;;;;;4952355;29;20123;-85
2023/12/17 10:45:43;;;;;;;24.38;10.30;;;9.60;99.90;;;;;;4952780;29;20044;-85
2023/12/17 10:48:10;;;;;;;17.75;9.27;;;9.60;99.90;;;;;;4948916;29;20070;-86
2023/12/17 10:50:38;;;;;;;20.83;10.50;;;9.60;99.90;;;;;;4940188;29;20044;-86
2023/12/17 10:53:09;;;;;;;24.65;10.60;;;9.60;99.90;;;;;;4937870;29;20044;-85
2023/12/17 10:55:36;;;;;;;30.92;10.80;;;9.60;99.90;;;;;;4933656;29;20131;-85
2023/12/17 10:58:07;;;;;;;19.90;11.07;;;9.70;99.90;;;;;;4949157;29;20123;-85
2023/12/17 11:00:39;;;;;;;25.25;10.98;;;9.60;99.90;;;;;;4949854;29;20036;-83
2023/12/17 11:03:10;;;;;;;24.63;11.60;;;9.70;99.90;;;;;;4952178;29;20071;-82
2023/12/17 11:05:37;;;;;;;20.73;11.00;;;9.60;99.90;;;;;;4952050;29;20114;-84
2023/12/17 11:08:05;;;;;;;25.05;11.65;;;9.60;99.90;;;;;;4952164;29;20048;-84
2023/12/17 11:10:37;;;;;;;21.10;11.50;;;9.60;99.90;;;;;;4938614;29;20079;-84
2023/12/17 11:13:05;;;;;;;21.20;10.95;;;9.60;99.90;;;;;;4936024;29;20130;-83
2023/12/17 11:15:31;;;;;;;21.65;11.07;;;9.60;99.90;;;;;;4947476;29;20040;-84
2023/12/17 11:17:58;;;;;;;20.88;10.85;;;9.80;99.90;;;;;;4950516;29;20465;-84
2023/12/17 11:20:35;;;;;;;20.77;10.60;;;9.60;99.90;;;;;;4960050;29;20031;-84
2023/12/17 11:23:04;;;;;;;23.38;10.50;;;9.60;99.90;;;;;;4948279;29;20075;-84
2023/12/17 11:25:31;;;;;;;21.45;10.63;;;9.60;99.90;;;;;;4946408;29;20036;-83
2023/12/17 11:27:58;;;;;;;22.50;10.98;;;9.60;99.90;;;;;;4955405;29;20095;-84
2023/12/17 11:30:30;;;;;;;21.48;10.13;;;9.60;99.90;;;;;;4955116;29;20039;-84
2023/12/17 11:32:58;;;;;;;21.15;9.60;;;9.60;99.90;;;;;;4955110;29;20074;-83
2023/12/17 11:35:28;;;;;;;17.38;9.30;;;9.60;99.90;;;;;;4955452;29;20046;-84
2023/12/17 11:37:58;;;;;;;19.40;9.85;;;9.60;99.90;;;;;;4955085;29;20044;-83
2023/12/17 11:40:27;;;;;;;19.23;9.15;;;10.30;99.90;;;;;;4955192;29;20493;-83
2023/12/17 11:43:02;;;;;;;16.13;8.55;;;10.40;99.90;;;;;;4953415;29;20134;-83
2023/12/17 11:45:36;;;;;;;17.25;8.45;;;9.70;99.90;;;;;;4954278;29;20043;-84
2023/12/17 11:48:12;;;;;;;18.67;8.80;;;9.70;99.90;;;;;;4955155;29;20531;-83
2023/12/17 11:50:50;;;;;;;19.52;8.90;;;9.80;99.90;;;;;;4965388;29;20466;-84
2023/12/17 11:53:20;;;;;;;18.27;8.60;;;10.10;99.90;;;;;;4966894;29;20055;-83
2023/12/17 11:55:49;;;;;;;18.27;8.20;;;9.70;99.90;;;;;;4947915;29;20092;-83
2023/12/17 11:58:18;;;;;;;17.92;8.35;;;10.30;99.90;;;;;;4950714;29;20044;-83
2023/12/17 12:01:09;;;;;;;15.48;8.48;;;10.00;99.90;;;;;;4954862;29;20040;-84
2023/12/17 12:03:37;;;;;;;15.32;8.00;;;9.90;99.90;;;;;;4954911;29;20043;-84
2023/12/17 12:06:08;;;;;;;15.70;8.25;;;9.80;99.90;;;;;;4951986;29;20135;-84
2023/12/17 12:08:46;;;;;;;16.27;7.65;;;9.80;99.90;;;;;;4948270;29;20142;-84
2023/12/17 12:11:14;;;;;;;12.60;6.97;;;9.80;99.90;;;;;;4960729;29;20040;-84
2023/12/17 12:13:43;;;;;;;13.88;7.28;;;10.60;99.90;;;;;;4952712;29;20635;-84
2023/12/17 12:16:11;;;;;;;12.00;7.15;;;10.10;99.90;;;;;;4945809;29;20127;-84
2023/12/17 12:18:38;;;;;;;14.60;6.97;;;9.90;99.90;;;;;;4951532;29;20074;-84
2023/12/17 12:21:19;;;;;;;15.23;7.72;;;9.80;99.90;;;;;;4955874;29;20040;-84
2023/12/17 12:23:52;;;;;;;13.20;7.38;;;9.80;99.90;;;;;;4944421;29;20118;-84
2023/12/17 12:26:19;;;;;;;11.60;6.55;;;10.00;99.90;;;;;;4954223;29;20047;-83
2023/12/17 12:28:54;;;;;;;12.48;7.15;;;9.90;99.90;;;;;;4953770;29;20424;-84
2023/12/17 12:31:20;;;;;;;14.52;7.40;;;9.80;99.90;;;;;;4945225;29;20091;-84
2023/12/17 12:34:02;;;;;;;14.10;7.00;;;9.80;99.90;;;;;;4965767;29;20044;-84
2023/12/17 12:36:45;;;;;;;12.02;6.68;;;9.70;99.90;;;;;;4946372;29;20071;-84
2023/12/17 12:39:15;;;;;;;14.50;7.18;;;9.70;99.90;;;;;;4937745;29;20083;-83
2023/12/17 12:41:45;;;;;;;12.73;7.15;;;9.70;99.90;;;;;;4949810;29;20044;-84
2023/12/17 12:44:13;;;;;;;13.73;7.45;;;9.70;99.90;;;;;;4942384;29;20048;-84
2023/12/17 12:46:41;;;;;;;18.13;7.32;;;9.70;99.90;;;;;;4950940;29;20090;-84
2023/12/17 12:49:08;;;;;;;15.13;7.38;;;9.70;99.90;;;;;;4951133;29;20032;-84